createdAt,value
2022-10-18T00:02:31.205Z,3.17
2022-10-18T00:05:18.734Z,3.37
2022-10-18T00:08:06.635Z,3.87
2022-10-18T00:10:54.349Z,4.17
2022-10-18T00:13:42.145Z,3.57
2022-10-18T00:16:29.426Z,6.47
2022-10-18T00:19:17.444Z,5.73
2022-10-18T00:22:05.046Z,3.10
2022-10-18T00:24:52.544Z,8.70
2022-10-18T00:27:40.209Z,3.80
2022-10-18T00:30:27.889Z,6.97
2022-10-18T00:33:15.687Z,3.10
2022-10-18T00:36:02.972Z,4.10
2022-10-18T00:38:50.986Z,3.33
2022-10-18T00:41:38.575Z,5.03
2022-10-18T00:44:26.335Z,3.17
2022-10-18T00:47:14.930Z,4.00
2022-10-18T00:50:04.197Z,4.73
2022-10-18T00:52:58.211Z,3.83
2022-10-18T00:55:45.941Z,5.87
2022-10-18T00:58:33.378Z,4.90
2022-10-18T01:01:24.412Z,4.20
2022-10-18T01:04:15.849Z,3.33
2022-10-18T01:07:15.408Z,2.97
2022-10-18T01:10:08.647Z,4.73
2022-10-18T01:13:08.451Z,3.17
2022-10-18T01:16:01.496Z,3.00
2022-10-18T01:19:00.985Z,5.57
2022-10-18T01:21:51.718Z,4.47
2022-10-18T01:24:39.507Z,4.17
2022-10-18T01:27:26.848Z,3.27
2022-10-18T01:30:23.993Z,6.77
2022-10-18T01:33:18.134Z,4.47
2022-10-18T01:36:14.840Z,6.33
2022-10-18T01:39:03.540Z,5.53
2022-10-18T01:41:52.577Z,3.20
2022-10-18T01:44:41.134Z,4.60
2022-10-18T01:47:28.907Z,6.97
2022-10-18T01:50:17.056Z,2.93
2022-10-18T01:53:04.309Z,3.00
2022-10-18T01:55:58.880Z,4.60
2022-10-18T01:58:55.749Z,6.83
2022-10-18T02:01:55.666Z,2.53
2022-10-18T02:04:47.788Z,3.00
2022-10-18T02:07:41.654Z,6.50
2022-10-18T02:10:32.331Z,3.10
2022-10-18T02:13:21.244Z,3.97
2022-10-18T02:16:11.551Z,2.20
2022-10-18T02:19:01.218Z,6.63
2022-10-18T02:21:49.549Z,2.53
2022-10-18T02:24:39.372Z,3.13
2022-10-18T02:27:27.107Z,3.13
2022-10-18T02:30:15.693Z,4.17
2022-10-18T02:33:10.166Z,2.60
2022-10-18T02:36:00.340Z,3.63
2022-10-18T02:38:48.541Z,3.30
2022-10-18T02:41:35.804Z,2.33
2022-10-18T02:44:23.031Z,4.03
2022-10-18T02:47:11.660Z,3.63
2022-10-18T02:49:59.409Z,3.87
2022-10-18T02:52:47.201Z,3.73
2022-10-18T02:55:34.597Z,2.93
2022-10-18T02:58:22.325Z,4.37
2022-10-18T03:01:09.856Z,3.93
2022-10-18T03:03:58.358Z,2.53
2022-10-18T03:06:46.174Z,9.97
2022-10-18T03:09:33.452Z,3.93
2022-10-18T03:12:21.169Z,4.43
2022-10-18T03:15:08.656Z,6.93
2022-10-18T03:17:56.010Z,3.60
2022-10-18T03:20:43.334Z,3.47
2022-10-18T03:23:31.010Z,3.67
2022-10-18T03:26:18.291Z,4.57
2022-10-18T03:29:06.115Z,2.63
2022-10-18T03:31:54.040Z,4.50
2022-10-18T03:34:41.696Z,7.40
2022-10-18T03:37:29.014Z,4.47
2022-10-18T03:40:16.788Z,3.27
2022-10-18T03:43:04.137Z,3.07
2022-10-18T03:45:51.881Z,6.83
2022-10-18T03:48:39.770Z,4.53
2022-10-18T03:51:27.518Z,2.43
2022-10-18T03:54:15.215Z,3.23
2022-10-18T03:57:02.939Z,3.03
2022-10-18T03:59:50.667Z,2.93
2022-10-18T04:02:38.021Z,3.87
2022-10-18T04:05:28.389Z,3.73
2022-10-18T04:08:16.507Z,2.87
2022-10-18T04:11:11.194Z,4.20
2022-10-18T04:13:58.953Z,3.03
2022-10-18T04:16:46.238Z,2.83
2022-10-18T04:19:33.987Z,3.03
2022-10-18T04:22:21.723Z,3.03
2022-10-18T04:25:09.245Z,2.60
2022-10-18T04:27:56.984Z,3.23
2022-10-18T04:30:44.310Z,5.03
2022-10-18T04:33:31.649Z,2.83
2022-10-18T04:36:18.955Z,3.37
2022-10-18T04:39:06.594Z,3.17
2022-10-18T04:41:53.779Z,5.87
2022-10-18T04:44:41.312Z,3.60
2022-10-18T04:47:28.940Z,4.33
2022-10-18T04:50:16.996Z,3.57
2022-10-18T04:53:04.257Z,3.93
2022-10-18T04:55:51.936Z,3.17
2022-10-18T04:58:39.126Z,3.97
2022-10-18T05:01:26.976Z,2.73
2022-10-18T05:04:14.349Z,5.27
2022-10-18T05:07:03.263Z,3.63
2022-10-18T05:09:50.677Z,4.93
2022-10-18T05:12:38.083Z,5.40
2022-10-18T05:15:25.717Z,3.47
2022-10-18T05:18:13.114Z,3.37
2022-10-18T05:21:00.985Z,6.73
2022-10-18T05:23:48.641Z,2.97
2022-10-18T05:26:36.351Z,3.03
2022-10-18T05:29:24.219Z,3.03
2022-10-18T05:32:11.567Z,2.93
2022-10-18T05:34:59.289Z,4.83
2022-10-18T05:37:47.123Z,3.47
2022-10-18T05:40:35.074Z,3.70
2022-10-18T05:43:23.083Z,4.17
2022-10-18T05:46:15.025Z,5.13
2022-10-18T05:49:03.121Z,3.47
2022-10-18T05:51:50.853Z,3.93
2022-10-18T05:54:38.130Z,4.70
2022-10-18T05:57:25.754Z,2.80
2022-10-18T06:00:13.328Z,5.53
2022-10-18T06:03:01.354Z,4.80
2022-10-18T06:05:48.643Z,5.43
2022-10-18T06:08:36.699Z,2.53
2022-10-18T06:11:24.504Z,5.53
2022-10-18T06:14:12.214Z,2.33
2022-10-18T06:16:59.514Z,5.37
2022-10-18T06:19:47.385Z,3.07
2022-10-18T06:22:34.781Z,7.10
2022-10-18T06:25:22.589Z,4.82
2022-10-18T06:28:11.542Z,4.77
2022-10-18T06:31:00.357Z,3.05
2022-10-18T06:33:47.721Z,2.85
2022-10-18T06:36:35.423Z,3.37
2022-10-18T06:39:22.840Z,4.35
2022-10-18T06:42:22.543Z,3.27
2022-10-18T06:45:10.441Z,3.20
2022-10-18T06:47:58.525Z,4.47
2022-10-18T06:50:57.378Z,4.32
2022-10-18T06:53:59.120Z,3.33
2022-10-18T06:56:56.462Z,3.00
2022-10-18T06:59:44.224Z,3.70
2022-10-18T07:02:32.151Z,4.40
2022-10-18T07:05:20.168Z,3.80
2022-10-18T07:08:07.602Z,3.15
2022-10-18T07:10:55.356Z,6.03
2022-10-18T07:13:43.185Z,3.47
2022-10-18T07:16:31.052Z,6.00
2022-10-18T07:19:18.354Z,3.55
2022-10-18T07:22:05.952Z,3.38
2022-10-18T07:24:53.346Z,4.97
2022-10-18T07:27:42.130Z,3.92
2022-10-18T07:30:29.388Z,2.70
2022-10-18T07:33:17.079Z,9.32
2022-10-18T07:36:08.643Z,3.10
2022-10-18T07:38:56.274Z,7.82
2022-10-18T07:41:43.515Z,4.15
2022-10-18T07:44:32.237Z,4.55
2022-10-18T07:47:19.691Z,2.95
2022-10-18T07:50:07.916Z,5.05
2022-10-18T07:52:55.628Z,5.35
2022-10-18T07:55:44.597Z,1.95
2022-10-18T07:58:45.585Z,4.75
2022-10-18T08:01:33.513Z,7.18
2022-10-18T08:04:20.892Z,8.90
2022-10-18T08:07:08.648Z,3.33
2022-10-18T08:09:56.471Z,2.42
2022-10-18T08:12:43.847Z,5.35
2022-10-18T08:15:31.743Z,2.80
2022-10-18T08:18:19.544Z,4.15
2022-10-18T08:21:11.502Z,3.25
2022-10-18T08:24:19.166Z,2.45
2022-10-18T08:27:09.566Z,5.28
2022-10-18T08:29:57.551Z,3.25
2022-10-18T08:32:48.216Z,2.80
2022-10-18T08:35:38.870Z,4.03
2022-10-18T08:38:26.259Z,4.22
2022-10-18T08:41:32.289Z,2.28
2022-10-18T08:44:20.022Z,2.22
2022-10-18T08:47:12.559Z,2.78
2022-10-18T08:50:05.095Z,4.28
2022-10-18T08:52:52.411Z,4.45
2022-10-18T08:55:49.289Z,3.33
2022-10-18T08:58:36.605Z,3.15
2022-10-18T09:01:44.700Z,4.10
2022-10-18T09:04:41.305Z,3.63
2022-10-18T09:07:38.640Z,3.42
2022-10-18T09:10:35.748Z,3.30
2022-10-18T09:13:38.356Z,5.00
2022-10-18T09:16:39.269Z,3.30
2022-10-18T09:19:27.053Z,3.53
2022-10-18T09:22:17.424Z,2.33
2022-10-18T09:25:09.397Z,4.15
2022-10-18T09:28:17.002Z,3.60
2022-10-18T09:31:08.936Z,3.05
2022-10-18T09:33:56.224Z,3.70
2022-10-18T09:36:45.781Z,2.90
2022-10-18T09:39:34.435Z,3.15
2022-10-18T09:42:27.323Z,2.83
2022-10-18T09:45:32.023Z,1.92
2022-10-18T09:48:22.787Z,4.47
2022-10-18T09:51:13.217Z,3.50
2022-10-18T09:54:06.912Z,2.78
2022-10-18T09:57:12.975Z,2.75
2022-10-18T10:00:01.616Z,5.38
2022-10-18T10:02:49.081Z,2.33
2022-10-18T10:05:36.977Z,3.72
2022-10-18T10:08:33.020Z,3.22
2022-10-18T10:11:41.065Z,3.15
2022-10-18T10:14:30.756Z,3.00
2022-10-18T10:17:29.765Z,2.58
2022-10-18T10:20:25.256Z,3.03
2022-10-18T10:23:15.661Z,3.17
2022-10-18T10:26:06.241Z,4.20
2022-10-18T10:28:54.191Z,3.70
2022-10-18T10:31:42.151Z,3.05
2022-10-18T10:34:31.123Z,8.25
2022-10-18T10:37:36.401Z,2.53
2022-10-18T10:40:27.838Z,4.75
2022-10-18T10:43:36.371Z,3.17
2022-10-18T10:46:34.071Z,3.70
2022-10-18T10:49:39.804Z,2.97
2022-10-18T10:52:29.752Z,3.15
2022-10-18T10:55:34.552Z,4.90
2022-10-18T10:58:23.350Z,2.58
2022-10-18T11:01:20.598Z,4.22
2022-10-18T11:04:28.996Z,3.78
2022-10-18T11:07:19.466Z,3.63
2022-10-18T11:10:13.015Z,4.20
2022-10-18T11:13:06.463Z,1.95
2022-10-18T11:15:55.823Z,3.60
2022-10-18T11:18:48.859Z,7.60
2022-10-18T11:21:45.704Z,2.90
2022-10-18T11:24:35.280Z,4.38
2022-10-18T11:27:42.715Z,2.63
2022-10-18T11:30:55.053Z,2.55
2022-10-18T11:34:09.265Z,4.35
2022-10-18T11:37:27.663Z,2.65
2022-10-18T11:40:20.092Z,2.25
2022-10-18T11:43:30.395Z,4.22
2022-10-18T11:46:45.351Z,2.40
2022-10-18T11:49:40.451Z,2.80
2022-10-18T11:52:37.028Z,2.60
2022-10-18T11:55:27.637Z,3.28
2022-10-18T11:58:38.323Z,2.40
2022-10-18T12:01:44.534Z,4.45
2022-10-18T12:04:41.815Z,1.88
2022-10-18T12:07:55.538Z,3.75
2022-10-18T12:11:04.104Z,4.47
2022-10-18T12:13:54.713Z,2.80
2022-10-18T12:16:51.584Z,2.42
2022-10-18T12:19:42.751Z,3.92
2022-10-18T12:22:37.945Z,3.40
2022-10-18T12:25:25.708Z,3.65
2022-10-18T12:28:30.102Z,2.42
2022-10-18T12:31:39.294Z,3.88
2022-10-18T12:34:40.100Z,3.20
2022-10-18T12:37:36.727Z,2.88
2022-10-18T12:40:26.660Z,2.70
2022-10-18T12:43:36.777Z,4.88
2022-10-18T12:46:24.346Z,2.38
2022-10-18T12:49:13.604Z,8.63
2022-10-18T12:52:02.987Z,3.10
2022-10-18T12:55:12.790Z,2.85
2022-10-18T12:58:03.520Z,5.43
2022-10-18T13:00:51.239Z,6.85
2022-10-18T13:03:51.042Z,4.80
2022-10-18T13:07:03.446Z,6.57
2022-10-18T13:10:09.509Z,3.45
2022-10-18T13:13:36.213Z,4.15
2022-10-18T13:16:27.701Z,5.22
2022-10-18T13:19:21.677Z,3.85
2022-10-18T13:22:27.703Z,2.97
2022-10-18T13:25:21.177Z,3.35
2022-10-18T13:28:21.434Z,2.63
2022-10-18T13:31:24.145Z,9.45
2022-10-18T13:34:40.626Z,3.35
2022-10-18T13:37:29.265Z,6.97
2022-10-18T13:40:24.605Z,4.78
2022-10-18T13:43:31.128Z,3.85
2022-10-18T13:46:19.373Z,3.03
2022-10-18T13:49:15.724Z,7.43
2022-10-18T13:52:09.720Z,5.60
2022-10-18T13:55:09.324Z,5.70
2022-10-18T13:58:09.985Z,2.50
2022-10-18T14:00:57.973Z,5.55
2022-10-18T14:03:58.546Z,4.85
2022-10-18T14:06:47.954Z,5.03
2022-10-18T14:09:44.165Z,5.13
2022-10-18T14:12:46.819Z,2.53
2022-10-18T14:15:37.398Z,4.47
2022-10-18T14:18:31.838Z,2.90
2022-10-18T14:21:31.419Z,4.00
2022-10-18T14:24:23.062Z,5.03
2022-10-18T14:27:18.497Z,3.42
2022-10-18T14:30:20.518Z,7.53
2022-10-18T14:33:24.584Z,3.30
2022-10-18T14:36:21.626Z,4.35
2022-10-18T14:39:20.765Z,3.88
2022-10-18T14:42:19.719Z,9.73
2022-10-18T14:45:19.288Z,2.72
2022-10-18T14:48:17.211Z,4.70
2022-10-18T14:51:09.548Z,5.82
2022-10-18T14:53:57.878Z,3.72
2022-10-18T14:56:45.723Z,4.70
2022-10-18T14:59:45.894Z,4.55
2022-10-18T15:02:35.940Z,2.67
2022-10-18T15:05:25.304Z,4.03
2022-10-18T15:08:13.474Z,3.50
2022-10-18T15:11:01.271Z,5.53
2022-10-18T15:13:50.906Z,5.47
2022-10-18T15:16:39.392Z,4.97
2022-10-18T15:19:35.201Z,7.60
2022-10-18T15:22:32.345Z,3.15
2022-10-18T15:25:29.338Z,2.53
2022-10-18T15:28:28.829Z,3.72
2022-10-18T15:31:23.071Z,4.53
2022-10-18T15:34:20.063Z,3.55
2022-10-18T15:37:18.287Z,3.97
2022-10-18T15:40:24.575Z,3.25
2022-10-18T15:43:24.611Z,3.92
2022-10-18T15:46:34.248Z,5.15
2022-10-18T15:49:44.782Z,4.13
2022-10-18T15:52:38.108Z,7.95
2022-10-18T15:55:33.036Z,9.38
2022-10-18T15:58:22.784Z,5.15
2022-10-18T16:01:16.429Z,4.18
2022-10-18T16:04:10.141Z,4.07
2022-10-18T16:06:58.277Z,3.15
2022-10-18T16:09:45.559Z,2.53
2022-10-18T16:12:33.410Z,4.43
2022-10-18T16:15:20.918Z,7.32
2022-10-18T16:18:10.447Z,6.63
2022-10-18T16:20:58.302Z,4.22
2022-10-18T16:23:46.204Z,5.82
2022-10-18T16:26:34.423Z,5.72
2022-10-18T16:29:25.794Z,4.10
2022-10-18T16:32:13.309Z,5.68
2022-10-18T16:35:00.746Z,6.15
2022-10-18T16:37:48.478Z,3.53
2022-10-18T16:40:38.934Z,4.55
2022-10-18T16:43:29.145Z,7.43
2022-10-18T16:46:17.714Z,5.55
2022-10-18T16:49:05.547Z,5.72
2022-10-18T16:51:54.021Z,5.28
2022-10-18T16:54:41.889Z,4.68
2022-10-18T16:57:29.643Z,7.15
2022-10-18T17:00:22.327Z,5.75
2022-10-18T17:03:12.483Z,7.80
2022-10-18T17:06:00.313Z,6.97
2022-10-18T17:08:56.507Z,7.53
2022-10-18T17:11:44.280Z,5.38
2022-10-18T17:14:33.706Z,6.90
2022-10-18T17:17:24.440Z,6.70
2022-10-18T17:20:35.768Z,7.75
2022-10-18T17:23:09.238Z,6.00
2022-10-18T17:26:06.879Z,5.43
2022-10-18T17:28:57.852Z,5.65
2022-10-18T17:31:45.223Z,9.32
2022-10-18T17:34:32.660Z,5.57
2022-10-18T17:37:20.593Z,4.35
2022-10-18T17:40:08.379Z,5.43
2022-10-18T17:42:56.190Z,4.72
2022-10-18T17:45:48.599Z,6.70
2022-10-18T17:48:36.495Z,4.53
2022-10-18T17:51:24.323Z,7.32
2022-10-18T17:54:11.898Z,6.32
2022-10-18T17:56:59.335Z,6.03
2022-10-18T17:59:47.998Z,5.40
2022-10-18T18:02:37.213Z,6.03
2022-10-18T18:05:30.871Z,5.78
2022-10-18T18:08:18.273Z,6.03
2022-10-18T18:11:06.169Z,5.43
2022-10-18T18:13:55.430Z,5.22
2022-10-18T18:16:44.769Z,7.03
2022-10-18T18:19:32.281Z,6.78
2022-10-18T18:22:20.183Z,8.15
2022-10-18T18:25:09.544Z,6.60
2022-10-18T18:27:57.416Z,5.43
2022-10-18T18:30:45.271Z,7.80
2022-10-18T18:33:36.197Z,6.05
2022-10-18T18:36:24.677Z,6.03
2022-10-18T18:39:18.666Z,9.35
2022-10-18T18:42:07.187Z,10.65
2022-10-18T18:44:54.783Z,10.20
2022-10-18T18:47:42.129Z,11.15
2022-10-18T18:50:31.851Z,8.68
2022-10-18T18:53:19.578Z,7.82
2022-10-18T18:56:08.206Z,8.40
2022-10-18T18:58:56.723Z,9.20
2022-10-18T19:01:44.263Z,7.05
2022-10-18T19:04:31.820Z,9.25
2022-10-18T19:07:19.071Z,9.05
2022-10-18T19:10:06.693Z,10.35
2022-10-18T19:12:54.458Z,10.95
2022-10-18T19:15:41.896Z,8.77
2022-10-18T19:18:29.452Z,7.15
2022-10-18T19:21:16.879Z,9.18
2022-10-18T19:24:04.326Z,7.22
2022-10-18T19:26:54.307Z,7.70
2022-10-18T19:29:42.413Z,10.82
2022-10-18T19:32:29.697Z,8.60
2022-10-18T19:35:17.144Z,6.95
2022-10-18T19:38:04.630Z,6.15
2022-10-18T19:40:53.851Z,6.72
2022-10-18T19:43:41.273Z,11.82
2022-10-18T19:46:28.520Z,12.48
2022-10-18T19:49:16.820Z,8.13
2022-10-18T19:52:04.075Z,7.38
2022-10-18T19:54:51.611Z,7.15
2022-10-18T19:57:38.892Z,8.35
2022-10-18T20:00:26.361Z,6.03
2022-10-18T20:03:13.764Z,6.75
2022-10-18T20:06:02.623Z,8.07
2022-10-18T20:08:50.146Z,7.88
2022-10-18T20:11:38.037Z,10.27
2022-10-18T20:14:25.282Z,6.40
2022-10-18T20:17:14.290Z,7.90
2022-10-18T20:20:01.670Z,6.20
2022-10-18T20:22:49.683Z,8.43
2022-10-18T20:25:37.093Z,8.50
2022-10-18T20:28:25.507Z,8.82
2022-10-18T20:31:17.818Z,5.93
2022-10-18T20:34:09.283Z,7.60
2022-10-18T20:36:56.691Z,6.93
2022-10-18T20:39:44.161Z,12.00
2022-10-18T20:42:31.350Z,7.97
2022-10-18T20:45:19.289Z,7.30
2022-10-18T20:48:07.162Z,9.73
2022-10-18T20:50:55.013Z,7.50
2022-10-18T20:53:42.709Z,8.30
2022-10-18T20:56:31.902Z,7.43
2022-10-18T20:59:19.282Z,8.60
2022-10-18T21:02:07.126Z,8.60
2022-10-18T21:04:54.502Z,14.52
2022-10-18T21:07:42.176Z,10.38
2022-10-18T21:10:29.578Z,9.13
2022-10-18T21:13:17.247Z,12.15
2022-10-18T21:16:05.784Z,8.15
2022-10-18T21:18:53.630Z,12.55
2022-10-18T21:21:42.624Z,7.47
2022-10-18T21:24:30.863Z,6.82
2022-10-18T21:27:18.673Z,7.55
2022-10-18T21:30:06.055Z,7.10
2022-10-18T21:32:53.916Z,8.73
2022-10-18T21:35:41.804Z,8.15
2022-10-18T21:38:29.673Z,12.70
2022-10-18T21:41:18.725Z,14.07
2022-10-18T21:44:08.399Z,13.65
2022-10-18T21:46:58.329Z,16.50
2022-10-18T21:49:45.539Z,15.82
2022-10-18T21:52:33.595Z,12.98
2022-10-18T21:55:21.581Z,13.75
2022-10-18T21:58:10.038Z,13.55
2022-10-18T22:00:57.453Z,10.48
2022-10-18T22:03:45.905Z,10.45
2022-10-18T22:09:27.685Z,9.65
2022-10-18T22:12:15.147Z,14.48
2022-10-18T22:15:03.093Z,13.00
2022-10-18T22:17:50.474Z,11.55
2022-10-18T22:20:38.111Z,7.70
2022-10-18T22:23:26.274Z,15.18
2022-10-18T22:26:15.557Z,8.63
2022-10-18T22:29:05.230Z,5.65
2022-10-18T22:31:54.390Z,13.20
2022-10-18T22:34:41.655Z,13.25
2022-10-18T22:37:29.580Z,9.48
2022-10-18T22:40:16.956Z,8.63
2022-10-18T22:43:04.777Z,8.60
2022-10-18T22:45:51.983Z,7.53
2022-10-18T22:48:40.070Z,7.00
2022-10-18T22:51:28.008Z,8.50
2022-10-18T22:54:15.445Z,10.85
2022-10-18T22:57:03.085Z,7.15
2022-10-18T22:59:50.530Z,8.82
2022-10-18T23:02:38.358Z,7.57
2022-10-18T23:05:25.596Z,8.23
2022-10-18T23:08:14.374Z,6.93
2022-10-18T23:11:01.758Z,8.77
2022-10-18T23:13:49.591Z,9.48
2022-10-18T23:16:37.042Z,8.20
2022-10-18T23:19:24.900Z,5.20
2022-10-18T23:22:14.867Z,7.10
2022-10-18T23:25:02.510Z,7.05
2022-10-18T23:27:50.164Z,6.53
2022-10-18T23:30:38.851Z,7.45
2022-10-18T23:33:26.252Z,6.90
2022-10-18T23:36:14.200Z,5.82
2022-10-18T23:39:02.264Z,7.70
2022-10-18T23:41:49.669Z,6.57
2022-10-18T23:44:37.485Z,7.25
2022-10-18T23:47:24.688Z,8.15
2022-10-18T23:50:12.355Z,15.10
2022-10-18T23:52:59.538Z,6.88
2022-10-18T23:55:54.374Z,11.48
2022-10-18T23:58:42.111Z,5.97
